Aérodrome :
LOGIN :

S'inscrire | Disclaimer

   EN    FR    IT 

 










Légende :    VFR   VFR Marginal   IFR   IFR Intensif   IFR Très Intensif
Visi : 
Plafond : 
>= 8 km
>= 3000ft
5 à 8 km
1000 à 3000 ft
1500m à 5 km
500 à 1000 ft
800 à 1500m
200 à 500 ft
< 800m
< 200 ft
Symboles :   Orages  Brouillard  Fortes neiges  Fortes précipitations  Vent > 20 kt
SIGMETs :   Divers  Orages  Givrage  Turbulence  Onde Orograph.  Cendres Volcan.






- Altitude de l'aérodrome : 74 ft
- Code IATA : LRH


LFBH - La Rochelle Ile de Ré

DERNIER METAR :
  • 190530Z AUTO 14004KT 6000 NSC 02/01 Q1018 TEMPO 4000 BR

METARs EXPIRÉS :
  • 190500Z AUTO 14004KT 6000 NSC 02/01 Q1018 TEMPO 4000 BR
  • 190430Z AUTO 14005KT 6000 NSC 02/01 Q1018 TEMPO 4000 BR
  • 190400Z AUTO 14003KT 5000 BR NSC 02/01 Q1018 NOSIG
  • 190330Z AUTO 14004KT 5000 BR NSC 02/01 Q1018 NOSIG
  • 190300Z AUTO 16004KT 6000 NSC 04/03 Q1018 TEMPO 4000 BR

TAF TAF LFBH
Valide du 19 à 06h jusqu'au 20 à 06h UTC


190500Z 1906/2006 12005KT CAVOK
TEMPO 1906/1908 4000 BR
ATIS : +33 5 46 00 13 92



MET'MAP, la Météo Aéronautique d'un coup d'oeil ! - Copyright ORBIFLY Décembre 2007 - Disclaimer

ORBIFLY MET'MAP TEAM :

Programmation & Développement : Alexandra Zaïnal
Conception & Développement : Baudouin d'Aumeries
Co-Programmation & Développement : Marc-Olivier Méhu
Soutien technique & logistique : Manuel Goepfert

Contact : metmap@orbifly.com




SOURCES & CREDITS :

   NOAA